sensor_id;sensor_type;location;lat;lon;timestamp;pressure;altitude;pressure_sealevel;temperature;humidity
20624;BME280;10471;42.736;23.346;2023-06-10T00:01:58;95142.44;;;17.29;100.00
20624;BME280;10471;42.736;23.346;2023-06-10T00:04:25;95137.91;;;17.30;100.00
20624;BME280;10471;42.736;23.346;2023-06-10T00:06:51;95133.34;;;17.30;100.00
20624;BME280;10471;42.736;23.346;2023-06-10T00:09:16;95127.41;;;17.33;100.00
20624;BME280;10471;42.736;23.346;2023-06-10T00:11:43;95132.06;;;17.36;100.00
20624;BME280;10471;42.736;23.346;2023-06-10T00:14:09;95127.66;;;17.40;100.00
20624;BME280;10471;42.736;23.346;2023-06-10T00:16:35;95121.22;;;17.41;100.00
20624;BME280;10471;42.736;23.346;2023-06-10T00:19:02;95122.59;;;17.47;100.00
20624;BME280;10471;42.736;23.346;2023-06-10T00:21:29;95129.63;;;17.52;100.00
20624;BME280;10471;42.736;23.346;2023-06-10T00:23:55;95123.16;;;17.53;100.00
20624;BME280;10471;42.736;23.346;2023-06-10T00:26:23;95131.16;;;17.53;100.00
20624;BME280;10471;42.736;23.346;2023-06-10T00:28:49;95139.88;;;17.41;100.00
20624;BME280;10471;42.736;23.346;2023-06-10T00:31:15;95138.59;;;17.47;100.00
20624;BME280;10471;42.736;23.346;2023-06-10T00:33:41;95134.72;;;17.36;100.00
20624;BME280;10471;42.736;23.346;2023-06-10T00:36:06;95140.97;;;17.40;100.00
20624;BME280;10471;42.736;23.346;2023-06-10T00:38:31;95144.00;;;17.30;100.00
20624;BME280;10471;42.736;23.346;2023-06-10T00:40:57;95136.78;;;17.39;100.00
20624;BME280;10471;42.736;23.346;2023-06-10T00:43:22;95145.84;;;17.38;100.00
20624;BME280;10471;42.736;23.346;2023-06-10T00:45:49;95144.25;;;17.46;100.00
20624;BME280;10471;42.736;23.346;2023-06-10T00:48:14;95148.59;;;17.50;100.00
20624;BME280;10471;42.736;23.346;2023-06-10T00:50:40;95141.81;;;17.53;100.00
20624;BME280;10471;42.736;23.346;2023-06-10T00:53:06;95140.53;;;17.59;100.00
20624;BME280;10471;42.736;23.346;2023-06-10T00:55:32;95140.34;;;17.64;100.00
20624;BME280;10471;42.736;23.346;2023-06-10T00:57:58;95141.59;;;17.66;100.00
20624;BME280;10471;42.736;23.346;2023-06-10T01:00:25;95149.38;;;17.71;100.00
20624;BME280;10471;42.736;23.346;2023-06-10T01:02:51;95159.25;;;17.50;100.00
20624;BME280;10471;42.736;23.346;2023-06-10T01:05:17;95156.03;;;17.36;100.00
20624;BME280;10471;42.736;23.346;2023-06-10T01:10:36;95155.75;;;17.29;100.00
20624;BME280;10471;42.736;23.346;2023-06-10T01:13:03;95152.94;;;17.34;100.00
20624;BME280;10471;42.736;23.346;2023-06-10T01:15:33;95145.81;;;17.47;100.00
20624;BME280;10471;42.736;23.346;2023-06-10T01:18:08;95139.97;;;17.53;100.00
20624;BME280;10471;42.736;23.346;2023-06-10T01:20:36;95142.47;;;17.50;100.00
20624;BME280;10471;42.736;23.346;2023-06-10T01:23:06;95143.25;;;17.50;100.00
20624;BME280;10471;42.736;23.346;2023-06-10T01:25:32;95143.00;;;17.43;100.00
20624;BME280;10471;42.736;23.346;2023-06-10T01:28:15;95134.16;;;17.51;100.00
20624;BME280;10471;42.736;23.346;2023-06-10T01:33:27;95135.06;;;17.55;100.00
20624;BME280;10471;42.736;23.346;2023-06-10T01:35:56;95135.34;;;17.62;100.00
20624;BME280;10471;42.736;23.346;2023-06-10T01:38:24;95135.16;;;17.67;100.00
20624;BME280;10471;42.736;23.346;2023-06-10T01:40:52;95138.19;;;17.57;100.00
20624;BME280;10471;42.736;23.346;2023-06-10T01:43:20;95133.78;;;17.61;100.00
20624;BME280;10471;42.736;23.346;2023-06-10T01:45:45;95127.22;;;17.59;100.00
20624;BME280;10471;42.736;23.346;2023-06-10T01:48:11;95124.28;;;17.72;100.00
20624;BME280;10471;42.736;23.346;2023-06-10T01:50:36;95127.09;;;17.75;100.00
20624;BME280;10471;42.736;23.346;2023-06-10T01:53:03;95126.56;;;17.82;100.00
20624;BME280;10471;42.736;23.346;2023-06-10T01:55:29;95121.84;;;17.87;100.00
20624;BME280;10471;42.736;23.346;2023-06-10T01:57:54;95131.06;;;17.90;100.00
20624;BME280;10471;42.736;23.346;2023-06-10T02:00:20;95121.50;;;17.89;100.00
20624;BME280;10471;42.736;23.346;2023-06-10T02:02:45;95119.31;;;17.91;100.00
20624;BME280;10471;42.736;23.346;2023-06-10T02:05:11;95120.84;;;17.92;100.00
20624;BME280;10471;42.736;23.346;2023-06-10T02:07:36;95110.63;;;17.94;100.00
20624;BME280;10471;42.736;23.346;2023-06-10T02:10:01;95119.09;;;17.96;100.00
20624;BME280;10471;42.736;23.346;2023-06-10T02:12:27;95127.41;;;17.94;100.00
20624;BME280;10471;42.736;23.346;2023-06-10T02:14:52;95120.19;;;17.95;100.00
20624;BME280;10471;42.736;23.346;2023-06-10T02:17:18;95124.44;;;17.96;100.00
20624;BME280;10471;42.736;23.346;2023-06-10T02:19:44;95122.19;;;17.98;100.00
20624;BME280;10471;42.736;23.346;2023-06-10T02:22:20;95112.19;;;17.95;100.00
20624;BME280;10471;42.736;23.346;2023-06-10T02:24:45;95117.53;;;17.95;100.00
20624;BME280;10471;42.736;23.346;2023-06-10T02:27:10;95113.75;;;17.96;100.00
20624;BME280;10471;42.736;23.346;2023-06-10T02:29:36;95099.97;;;17.94;100.00
20624;BME280;10471;42.736;23.346;2023-06-10T02:32:02;95098.16;;;17.86;100.00
20624;BME280;10471;42.736;23.346;2023-06-10T02:34:28;95098.16;;;17.86;100.00
20624;BME280;10471;42.736;23.346;2023-06-10T02:36:54;95102.69;;;17.85;100.00
20624;BME280;10471;42.736;23.346;2023-06-10T02:39:21;95103.03;;;17.84;100.00
20624;BME280;10471;42.736;23.346;2023-06-10T02:41:46;95091.28;;;17.85;100.00
20624;BME280;10471;42.736;23.346;2023-06-10T02:44:12;95098.16;;;17.86;100.00
20624;BME280;10471;42.736;23.346;2023-06-10T02:46:37;95101.28;;;17.88;100.00
20624;BME280;10471;42.736;23.346;2023-06-10T02:49:03;95093.28;;;17.88;100.00
20624;BME280;10471;42.736;23.346;2023-06-10T02:51:28;95081.50;;;17.89;100.00
20624;BME280;10471;42.736;23.346;2023-06-10T02:53:53;95081.50;;;17.89;100.00
20624;BME280;10471;42.736;23.346;2023-06-10T02:56:19;95095.94;;;17.88;100.00
20624;BME280;10471;42.736;23.346;2023-06-10T02:58:45;95098.53;;;17.76;100.00
20624;BME280;10471;42.736;23.346;2023-06-10T03:01:11;95102.97;;;17.72;100.00
20624;BME280;10471;42.736;23.346;2023-06-10T03:03:36;95099.59;;;17.63;100.00
20624;BME280;10471;42.736;23.346;2023-06-10T03:06:06;95096.84;;;17.51;100.00
20624;BME280;10471;42.736;23.346;2023-06-10T03:08:31;95111.16;;;17.47;100.00
20624;BME280;10471;42.736;23.346;2023-06-10T03:10:56;95109.19;;;17.35;100.00
20624;BME280;10471;42.736;23.346;2023-06-10T03:13:23;95109.38;;;17.22;100.00
20624;BME280;10471;42.736;23.346;2023-06-10T03:15:49;95108.34;;;17.14;100.00
20624;BME280;10471;42.736;23.346;2023-06-10T03:18:14;95115.59;;;17.06;100.00
20624;BME280;10471;42.736;23.346;2023-06-10T03:20:40;95110.94;;;17.03;100.00
20624;BME280;10471;42.736;23.346;2023-06-10T03:23:05;95117.53;;;16.97;100.00
20624;BME280;10471;42.736;23.346;2023-06-10T03:25:34;95119.47;;;16.88;100.00
20624;BME280;10471;42.736;23.346;2023-06-10T03:27:59;95127.78;;;16.78;100.00
20624;BME280;10471;42.736;23.346;2023-06-10T03:30:25;95129.66;;;16.77;100.00
20624;BME280;10471;42.736;23.346;2023-06-10T03:32:50;95131.09;;;16.75;100.00
20624;BME280;10471;42.736;23.346;2023-06-10T03:35:15;95125.00;;;16.74;100.00
20624;BME280;10471;42.736;23.346;2023-06-10T03:37:42;95128.59;;;16.70;100.00
20624;BME280;10471;42.736;23.346;2023-06-10T03:40:08;95121.88;;;16.64;100.00
20624;BME280;10471;42.736;23.346;2023-06-10T03:42:34;95123.78;;;16.63;100.00
20624;BME280;10471;42.736;23.346;2023-06-10T03:45:00;95118.59;;;16.67;100.00
20624;BME280;10471;42.736;23.346;2023-06-10T03:47:25;95125.28;;;16.73;100.00
20624;BME280;10471;42.736;23.346;2023-06-10T03:49:51;95125.09;;;16.78;100.00
20624;BME280;10471;42.736;23.346;2023-06-10T03:52:17;95122.41;;;16.86;100.00
20624;BME280;10471;42.736;23.346;2023-06-10T03:54:42;95121.28;;;16.96;100.00
20624;BME280;10471;42.736;23.346;2023-06-10T03:57:08;95117.69;;;17.00;100.00
20624;BME280;10471;42.736;23.346;2023-06-10T03:59:33;95125.16;;;17.07;100.00
20624;BME280;10471;42.736;23.346;2023-06-10T04:01:58;95120.28;;;17.08;100.00
20624;BME280;10471;42.736;23.346;2023-06-10T04:04:24;95123.41;;;17.10;100.00
20624;BME280;10471;42.736;23.346;2023-06-10T04:06:49;95118.81;;;17.19;100.00
20624;BME280;10471;42.736;23.346;2023-06-10T04:09:15;95126.00;;;17.27;100.00
20624;BME280;10471;42.736;23.346;2023-06-10T04:11:41;95122.06;;;17.33;100.00
20624;BME280;10471;42.736;23.346;2023-06-10T04:14:07;95128.31;;;17.37;100.00
20624;BME280;10471;42.736;23.346;2023-06-10T04:16:33;95126.53;;;17.41;100.00
20624;BME280;10471;42.736;23.346;2023-06-10T04:18:59;95125.59;;;17.46;100.00
20624;BME280;10471;42.736;23.346;2023-06-10T04:21:25;95127.00;;;17.43;100.00
20624;BME280;10471;42.736;23.346;2023-06-10T04:23:51;95130.78;;;17.42;100.00
20624;BME280;10471;42.736;23.346;2023-06-10T04:26:16;95136.38;;;17.49;100.00
20624;BME280;10471;42.736;23.346;2023-06-10T04:28:45;95123.78;;;17.58;100.00
20624;BME280;10471;42.736;23.346;2023-06-10T04:31:11;95122.16;;;17.66;100.00
20624;BME280;10471;42.736;23.346;2023-06-10T04:33:36;95127.16;;;17.67;100.00
20624;BME280;10471;42.736;23.346;2023-06-10T04:36:02;95126.63;;;17.73;100.00
20624;BME280;10471;42.736;23.346;2023-06-10T04:38:27;95128.31;;;17.78;100.00
20624;BME280;10471;42.736;23.346;2023-06-10T04:40:53;95122.47;;;17.84;100.00
20624;BME280;10471;42.736;23.346;2023-06-10T04:43:18;95137.03;;;17.87;100.00
20624;BME280;10471;42.736;23.346;2023-06-10T04:45:44;95137.31;;;17.94;100.00
20624;BME280;10471;42.736;23.346;2023-06-10T04:48:10;95135.53;;;17.98;100.00
20624;BME280;10471;42.736;23.346;2023-06-10T04:50:36;95137.56;;;18.01;100.00
20624;BME280;10471;42.736;23.346;2023-06-10T04:53:02;95129.03;;;18.07;100.00
20624;BME280;10471;42.736;23.346;2023-06-10T04:55:27;95133.00;;;18.01;100.00
20624;BME280;10471;42.736;23.346;2023-06-10T04:57:53;95130.41;;;18.13;100.00
20624;BME280;10471;42.736;23.346;2023-06-10T05:00:18;95127.03;;;18.25;100.00
20624;BME280;10471;42.736;23.346;2023-06-10T05:02:43;95118.16;;;18.33;100.00
20624;BME280;10471;42.736;23.346;2023-06-10T05:05:10;95113.94;;;18.43;100.00
20624;BME280;10471;42.736;23.346;2023-06-10T05:07:36;95122.22;;;18.50;100.00
20624;BME280;10471;42.736;23.346;2023-06-10T05:10:01;95126.16;;;18.33;100.00
20624;BME280;10471;42.736;23.346;2023-06-10T05:12:28;95117.41;;;18.44;100.00
20624;BME280;10471;42.736;23.346;2023-06-10T05:14:53;95119.66;;;18.54;100.00
20624;BME280;10471;42.736;23.346;2023-06-10T05:17:18;95130.03;;;18.67;100.00
20624;BME280;10471;42.736;23.346;2023-06-10T05:19:44;95126.59;;;18.79;100.00
20624;BME280;10471;42.736;23.346;2023-06-10T05:22:09;95132.09;;;18.94;100.00
20624;BME280;10471;42.736;23.346;2023-06-10T05:24:35;95137.75;;;19.05;100.00
20624;BME280;10471;42.736;23.346;2023-06-10T05:27:00;95141.47;;;19.12;100.00
20624;BME280;10471;42.736;23.346;2023-06-10T05:29:25;95135.25;;;19.20;100.00
20624;BME280;10471;42.736;23.346;2023-06-10T05:31:51;95138.81;;;19.24;100.00
20624;BME280;10471;42.736;23.346;2023-06-10T05:34:16;95144.81;;;19.21;100.00
20624;BME280;10471;42.736;23.346;2023-06-10T05:36:42;95143.03;;;19.25;100.00
20624;BME280;10471;42.736;23.346;2023-06-10T05:39:09;95136.78;;;19.33;100.00
20624;BME280;10471;42.736;23.346;2023-06-10T05:41:34;95137.59;;;19.33;100.00
20624;BME280;10471;42.736;23.346;2023-06-10T05:44:00;95144.81;;;19.45;100.00
20624;BME280;10471;42.736;23.346;2023-06-10T05:46:25;95139.00;;;19.43;100.00
20624;BME280;10471;42.736;23.346;2023-06-10T05:48:50;95145.91;;;19.56;100.00
20624;BME280;10471;42.736;23.346;2023-06-10T05:51:16;95146.38;;;19.46;100.00
20624;BME280;10471;42.736;23.346;2023-06-10T05:53:41;95147.13;;;19.58;100.00
20624;BME280;10471;42.736;23.346;2023-06-10T05:56:07;95141.88;;;19.73;100.00
20624;BME280;10471;42.736;23.346;2023-06-10T05:58:32;95141.69;;;19.55;100.00
20624;BME280;10471;42.736;23.346;2023-06-10T06:00:57;95150.56;;;19.71;100.00
20624;BME280;10471;42.736;23.346;2023-06-10T06:03:23;95152.78;;;19.80;100.00
20624;BME280;10471;42.736;23.346;2023-06-10T06:05:48;95148.66;;;19.95;100.00
20624;BME280;10471;42.736;23.346;2023-06-10T06:08:14;95135.34;;;20.10;100.00
20624;BME280;10471;42.736;23.346;2023-06-10T06:10:42;95139.72;;;20.30;100.00
20624;BME280;10471;42.736;23.346;2023-06-10T06:13:08;95132.59;;;20.49;100.00
20624;BME280;10471;42.736;23.346;2023-06-10T06:15:33;95137.38;;;20.56;100.00
20624;BME280;10471;42.736;23.346;2023-06-10T06:17:58;95137.66;;;20.66;100.00
20624;BME280;10471;42.736;23.346;2023-06-10T06:20:24;95148.47;;;20.70;100.00
20624;BME280;10471;42.736;23.346;2023-06-10T06:22:49;95148.47;;;20.70;100.00
20624;BME280;10471;42.736;23.346;2023-06-10T06:25:15;95157.34;;;20.86;100.00
20624;BME280;10471;42.736;23.346;2023-06-10T06:27:40;95163.13;;;20.60;100.00
20624;BME280;10471;42.736;23.346;2023-06-10T06:30:06;95161.81;;;20.54;100.00
20624;BME280;10471;42.736;23.346;2023-06-10T06:32:32;95164.63;;;20.46;100.00
20624;BME280;10471;42.736;23.346;2023-06-10T06:34:57;95158.56;;;20.61;100.00
20624;BME280;10471;42.736;23.346;2023-06-10T06:37:24;95153.72;;;20.66;100.00
20624;BME280;10471;42.736;23.346;2023-06-10T06:39:50;95153.69;;;20.51;100.00
20624;BME280;10471;42.736;23.346;2023-06-10T06:42:16;95150.38;;;20.42;100.00
20624;BME280;10471;42.736;23.346;2023-06-10T06:44:42;95149.97;;;20.40;100.00
20624;BME280;10471;42.736;23.346;2023-06-10T06:47:07;95145.84;;;20.58;100.00
20624;BME280;10471;42.736;23.346;2023-06-10T06:49:33;95143.72;;;20.63;100.00
20624;BME280;10471;42.736;23.346;2023-06-10T06:51:58;95146.44;;;20.51;100.00
20624;BME280;10471;42.736;23.346;2023-06-10T06:54:23;95136.41;;;20.76;100.00
20624;BME280;10471;42.736;23.346;2023-06-10T06:56:50;95142.13;;;20.90;100.00
20624;BME280;10471;42.736;23.346;2023-06-10T06:59:15;95133.63;;;20.88;100.00
20624;BME280;10471;42.736;23.346;2023-06-10T07:01:42;95137.53;;;20.75;100.00
20624;BME280;10471;42.736;23.346;2023-06-10T07:04:08;95139.97;;;20.68;100.00
20624;BME280;10471;42.736;23.346;2023-06-10T07:06:33;95136.69;;;20.59;100.00
20624;BME280;10471;42.736;23.346;2023-06-10T07:08:58;95141.78;;;20.91;100.00
20624;BME280;10471;42.736;23.346;2023-06-10T07:11:24;95128.81;;;20.93;100.00
20624;BME280;10471;42.736;23.346;2023-06-10T07:13:50;95133.16;;;20.70;100.00
20624;BME280;10471;42.736;23.346;2023-06-10T07:16:15;95135.91;;;20.86;100.00
20624;BME280;10471;42.736;23.346;2023-06-10T07:18:41;95135.31;;;21.08;100.00
20624;BME280;10471;42.736;23.346;2023-06-10T07:21:06;95125.34;;;21.23;100.00
20624;BME280;10471;42.736;23.346;2023-06-10T07:23:31;95124.97;;;21.40;100.00
20624;BME280;10471;42.736;23.346;2023-06-10T07:25:57;95124.19;;;21.55;100.00
20624;BME280;10471;42.736;23.346;2023-06-10T07:28:22;95128.38;;;21.37;100.00
20624;BME280;10471;42.736;23.346;2023-06-10T07:30:47;95133.53;;;21.61;100.00
20624;BME280;10471;42.736;23.346;2023-06-10T07:33:13;95126.00;;;21.67;100.00
20624;BME280;10471;42.736;23.346;2023-06-10T07:35:38;95136.38;;;21.68;100.00
20624;BME280;10471;42.736;23.346;2023-06-10T07:38:03;95131.88;;;21.91;100.00
20624;BME280;10471;42.736;23.346;2023-06-10T07:40:29;95132.50;;;22.00;100.00
20624;BME280;10471;42.736;23.346;2023-06-10T07:42:55;95131.44;;;22.23;100.00
20624;BME280;10471;42.736;23.346;2023-06-10T07:45:20;95125.03;;;22.46;100.00
20624;BME280;10471;42.736;23.346;2023-06-10T07:47:46;95122.06;;;22.51;100.00
20624;BME280;10471;42.736;23.346;2023-06-10T07:50:11;95125.34;;;22.64;100.00
20624;BME280;10471;42.736;23.346;2023-06-10T07:52:36;95123.09;;;22.47;100.00
20624;BME280;10471;42.736;23.346;2023-06-10T07:55:02;95121.75;;;22.38;100.00
20624;BME280;10471;42.736;23.346;2023-06-10T07:57:27;95126.91;;;22.65;100.00
20624;BME280;10471;42.736;23.346;2023-06-10T07:59:53;95121.03;;;22.78;100.00
20624;BME280;10471;42.736;23.346;2023-06-10T08:02:20;95126.06;;;23.02;100.00
20624;BME280;10471;42.736;23.346;2023-06-10T08:04:45;95125.69;;;23.26;100.00
20624;BME280;10471;42.736;23.346;2023-06-10T08:07:10;95119.69;;;22.69;100.00
20624;BME280;10471;42.736;23.346;2023-06-10T08:09:36;95117.72;;;22.66;100.00
20624;BME280;10471;42.736;23.346;2023-06-10T08:12:02;95117.56;;;23.00;100.00
20624;BME280;10471;42.736;23.346;2023-06-10T08:14:27;95114.44;;;22.98;100.00
20624;BME280;10471;42.736;23.346;2023-06-10T08:16:53;95112.06;;;22.93;94.98
20624;BME280;10471;42.736;23.346;2023-06-10T08:19:18;95113.16;;;23.11;96.68
20624;BME280;10471;42.736;23.346;2023-06-10T08:21:43;95106.66;;;23.38;94.27
20624;BME280;10471;42.736;23.346;2023-06-10T08:24:09;95100.91;;;23.65;92.96
20624;BME280;10471;42.736;23.346;2023-06-10T08:26:35;95095.22;;;23.96;94.02
20624;BME280;10471;42.736;23.346;2023-06-10T08:29:00;95102.38;;;24.14;87.16
20624;BME280;10471;42.736;23.346;2023-06-10T08:31:26;95097.41;;;24.16;81.35
20624;BME280;10471;42.736;23.346;2023-06-10T08:33:51;95097.25;;;24.35;72.85
20624;BME280;10471;42.736;23.346;2023-06-10T08:36:17;95095.13;;;24.18;76.02
20624;BME280;10471;42.736;23.346;2023-06-10T08:38:42;95097.91;;;24.25;79.10
20624;BME280;10471;42.736;23.346;2023-06-10T08:41:09;95090.47;;;24.15;76.90
20624;BME280;10471;42.736;23.346;2023-06-10T08:43:48;95091.44;;;24.00;82.37
20624;BME280;10471;42.736;23.346;2023-06-10T08:46:16;95088.25;;;24.24;84.89
20624;BME280;10471;42.736;23.346;2023-06-10T08:48:43;95082.16;;;24.60;90.34
20624;BME280;10471;42.736;23.346;2023-06-10T08:51:11;95074.75;;;24.90;87.21
20624;BME280;10471;42.736;23.346;2023-06-10T08:53:38;95080.94;;;24.94;72.47
20624;BME280;10471;42.736;23.346;2023-06-10T08:56:09;95081.50;;;24.70;67.90
20624;BME280;10471;42.736;23.346;2023-06-10T08:58:35;95074.91;;;24.67;74.62
20624;BME280;10471;42.736;23.346;2023-06-10T09:01:07;95072.56;;;24.66;82.23
20624;BME280;10471;42.736;23.346;2023-06-10T09:03:32;95075.34;;;24.73;75.08
20624;BME280;10471;42.736;23.346;2023-06-10T09:06:00;95075.47;;;24.87;79.46
20624;BME280;10471;42.736;23.346;2023-06-10T09:08:27;95074.06;;;25.00;66.41
20624;BME280;10471;42.736;23.346;2023-06-10T09:10:53;95079.94;;;24.69;64.71
20624;BME280;10471;42.736;23.346;2023-06-10T09:13:18;95072.22;;;24.67;68.22
20624;BME280;10471;42.736;23.346;2023-06-10T09:15:44;95068.09;;;24.41;66.91
20624;BME280;10471;42.736;23.346;2023-06-10T09:18:11;95071.13;;;24.39;67.95
20624;BME280;10471;42.736;23.346;2023-06-10T09:20:38;95066.06;;;24.34;70.73
20624;BME280;10471;42.736;23.346;2023-06-10T09:23:05;95067.69;;;24.09;71.06
20624;BME280;10471;42.736;23.346;2023-06-10T09:25:35;95059.47;;;24.28;76.60
20624;BME280;10471;42.736;23.346;2023-06-10T09:28:02;95060.28;;;24.68;81.56
20624;BME280;10471;42.736;23.346;2023-06-10T09:30:28;95063.78;;;25.12;74.88
20624;BME280;10471;42.736;23.346;2023-06-10T09:32:55;95060.56;;;25.46;70.26
20624;BME280;10471;42.736;23.346;2023-06-10T09:35:23;95064.63;;;25.73;64.89
20624;BME280;10471;42.736;23.346;2023-06-10T09:37:51;95055.47;;;25.95;69.54
20624;BME280;10471;42.736;23.346;2023-06-10T09:40:16;95061.72;;;26.13;65.91
20624;BME280;10471;42.736;23.346;2023-06-10T09:42:42;95059.47;;;26.29;62.22
20624;BME280;10471;42.736;23.346;2023-06-10T09:45:07;95055.69;;;26.37;59.67
20624;BME280;10471;42.736;23.346;2023-06-10T09:47:33;95050.28;;;26.44;62.31
20624;BME280;10471;42.736;23.346;2023-06-10T09:49:58;95047.09;;;26.28;58.10
20624;BME280;10471;42.736;23.346;2023-06-10T09:52:25;95043.31;;;26.43;56.91
20624;BME280;10471;42.736;23.346;2023-06-10T09:54:52;95034.00;;;26.30;60.21
20624;BME280;10471;42.736;23.346;2023-06-10T09:57:18;95042.16;;;26.37;61.16
20624;BME280;10471;42.736;23.346;2023-06-10T09:59:44;95039.06;;;26.48;61.78
20624;BME280;10471;42.736;23.346;2023-06-10T10:02:17;95036.41;;;26.55;60.67
20624;BME280;10471;42.736;23.346;2023-06-10T10:04:44;95027.13;;;26.56;57.76
20624;BME280;10471;42.736;23.346;2023-06-10T10:07:11;95034.09;;;26.78;59.23
20624;BME280;10471;42.736;23.346;2023-06-10T10:09:40;95032.97;;;26.90;55.81
20624;BME280;10471;42.736;23.346;2023-06-10T10:12:15;95036.47;;;27.11;60.09
20624;BME280;10471;42.736;23.346;2023-06-10T10:14:47;95021.75;;;27.29;56.14
20624;BME280;10471;42.736;23.346;2023-06-10T10:17:14;95022.88;;;27.53;57.35
20624;BME280;10471;42.736;23.346;2023-06-10T10:19:46;95024.81;;;27.70;54.52
20624;BME280;10471;42.736;23.346;2023-06-10T10:22:27;95017.78;;;27.89;51.80
20624;BME280;10471;42.736;23.346;2023-06-10T10:25:02;95025.03;;;28.13;53.63
20624;BME280;10471;42.736;23.346;2023-06-10T10:27:35;95013.28;;;28.48;53.06
20624;BME280;10471;42.736;23.346;2023-06-10T10:30:02;95010.41;;;28.79;49.52
20624;BME280;10471;42.736;23.346;2023-06-10T10:32:57;95000.31;;;28.76;51.20
20624;BME280;10471;42.736;23.346;2023-06-10T10:35:25;95009.50;;;28.96;50.88
20624;BME280;10471;42.736;23.346;2023-06-10T10:37:54;95000.31;;;29.26;49.62
20624;BME280;10471;42.736;23.346;2023-06-10T10:40:24;95001.44;;;29.32;50.65
20624;BME280;10471;42.736;23.346;2023-06-10T10:42:50;95000.44;;;29.56;50.72
20624;BME280;10471;42.736;23.346;2023-06-10T10:45:17;95004.47;;;29.41;48.79
20624;BME280;10471;42.736;23.346;2023-06-10T10:47:46;94999.88;;;29.72;49.18
20624;BME280;10471;42.736;23.346;2023-06-10T10:50:18;94992.53;;;29.69;50.04
20624;BME280;10471;42.736;23.346;2023-06-10T10:52:58;94991.56;;;29.89;47.60
20624;BME280;10471;42.736;23.346;2023-06-10T10:55:25;94986.69;;;29.70;47.84
20624;BME280;10471;42.736;23.346;2023-06-10T10:57:58;94987.09;;;29.32;47.46
20624;BME280;10471;42.736;23.346;2023-06-10T11:00:31;94987.84;;;28.85;50.62
20624;BME280;10471;42.736;23.346;2023-06-10T11:03:06;94986.06;;;28.65;51.13
20624;BME280;10471;42.736;23.346;2023-06-10T11:05:42;94989.84;;;28.71;51.29
20624;BME280;10471;42.736;23.346;2023-06-10T11:08:15;94983.69;;;28.67;49.32
20624;BME280;10471;42.736;23.346;2023-06-10T11:11:00;94979.06;;;28.67;48.16
20624;BME280;10471;42.736;23.346;2023-06-10T11:13:58;94975.25;;;28.58;49.60
20624;BME280;10471;42.736;23.346;2023-06-10T11:16:26;94972.53;;;28.58;48.85
20624;BME280;10471;42.736;23.346;2023-06-10T11:18:55;94968.38;;;28.97;48.29
20624;BME280;10471;42.736;23.346;2023-06-10T11:21:23;94968.47;;;29.27;45.17
20624;BME280;10471;42.736;23.346;2023-06-10T11:23:50;94961.09;;;29.68;42.79
20624;BME280;10471;42.736;23.346;2023-06-10T11:34:06;94945.53;;;30.05;40.96
20624;BME280;10471;42.736;23.346;2023-06-10T11:36:33;94937.41;;;30.28;42.27
20624;BME280;10471;42.736;23.346;2023-06-10T11:39:03;94939.06;;;30.22;39.87
20624;BME280;10471;42.736;23.346;2023-06-10T11:41:30;94932.31;;;30.59;38.84
20624;BME280;10471;42.736;23.346;2023-06-10T11:43:59;94936.88;;;30.66;37.90
20624;BME280;10471;42.736;23.346;2023-06-10T11:46:26;94933.28;;;30.72;37.26
20624;BME280;10471;42.736;23.346;2023-06-10T11:48:55;94933.50;;;30.58;38.97
20624;BME280;10471;42.736;23.346;2023-06-10T11:51:21;94935.97;;;29.90;36.82
20624;BME280;10471;42.736;23.346;2023-06-10T11:53:50;94934.94;;;29.47;39.29
20624;BME280;10471;42.736;23.346;2023-06-10T11:56:26;94915.03;;;30.17;40.13
20624;BME280;10471;42.736;23.346;2023-06-10T11:59:03;94925.53;;;30.45;38.89
20624;BME280;10471;42.736;23.346;2023-06-10T12:01:43;94923.78;;;30.57;39.43
20624;BME280;10471;42.736;23.346;2023-06-10T12:04:13;94920.06;;;30.48;36.80
20624;BME280;10471;42.736;23.346;2023-06-10T12:06:44;94917.66;;;30.24;38.90
20624;BME280;10471;42.736;23.346;2023-06-10T12:11:45;94922.94;;;30.08;38.83
20624;BME280;10471;42.736;23.346;2023-06-10T12:14:10;94927.97;;;29.76;37.33
20624;BME280;10471;42.736;23.346;2023-06-10T12:16:36;94915.47;;;29.82;39.12
20624;BME280;10471;42.736;23.346;2023-06-10T12:19:05;94912.13;;;30.01;37.79
20624;BME280;10471;42.736;23.346;2023-06-10T12:21:32;94920.47;;;30.17;38.28
20624;BME280;10471;42.736;23.346;2023-06-10T12:24:10;94915.59;;;30.31;37.86
20624;BME280;10471;42.736;23.346;2023-06-10T12:26:41;94911.53;;;30.46;36.08
20624;BME280;10471;42.736;23.346;2023-06-10T12:29:19;94910.66;;;30.75;37.80
20624;BME280;10471;42.736;23.346;2023-06-10T12:31:59;94909.91;;;30.98;36.51
20624;BME280;10471;42.736;23.346;2023-06-10T12:34:32;94904.50;;;30.94;33.89
20624;BME280;10471;42.736;23.346;2023-06-10T12:36:58;94909.34;;;30.83;34.03
20624;BME280;10471;42.736;23.346;2023-06-10T12:39:24;94905.19;;;30.53;34.23
20624;BME280;10471;42.736;23.346;2023-06-10T12:41:51;94899.53;;;30.66;35.87
20624;BME280;10471;42.736;23.346;2023-06-10T12:44:16;94901.78;;;30.71;34.46
20624;BME280;10471;42.736;23.346;2023-06-10T12:46:41;94887.88;;;30.66;37.12
20624;BME280;10471;42.736;23.346;2023-06-10T12:49:07;94889.59;;;30.57;36.53
20624;BME280;10471;42.736;23.346;2023-06-10T12:51:32;94900.53;;;30.53;36.46
20624;BME280;10471;42.736;23.346;2023-06-10T12:53:59;94897.78;;;30.27;36.24
20624;BME280;10471;42.736;23.346;2023-06-10T12:56:25;94898.41;;;30.11;38.89
20624;BME280;10471;42.736;23.346;2023-06-10T12:58:50;94905.25;;;29.93;36.82